createdAt,value
2022-08-17T00:00:40.318Z,713.23
2022-08-17T00:03:17.362Z,641.43
2022-08-17T00:05:49.175Z,705.07
2022-08-17T00:08:23.015Z,730.40
2022-08-17T00:10:52.796Z,667.90
2022-08-17T00:13:24.319Z,657.10
2022-08-17T00:15:52.736Z,644.90
2022-08-17T00:19:02.047Z,635.47
2022-08-17T00:21:11.813Z,617.67
2022-08-17T00:23:47.822Z,593.90
2022-08-17T00:26:34.877Z,696.93
2022-08-17T00:29:06.638Z,647.40
2022-08-17T00:31:35.725Z,643.53
2022-08-17T00:34:04.168Z,714.60
2022-08-17T00:36:33.848Z,752.20
2022-08-17T00:39:01.924Z,743.07
2022-08-17T00:41:29.849Z,698.40
2022-08-17T00:44:02.840Z,663.60
2022-08-17T00:46:35.808Z,591.20
2022-08-17T00:49:05.083Z,641.43
2022-08-17T00:51:38.710Z,582.20
2022-08-17T00:54:10.856Z,544.10
2022-08-17T00:56:43.004Z,641.43
2022-08-17T00:59:15.388Z,640.40
2022-08-17T01:01:43.724Z,644.13
2022-08-17T01:04:18.621Z,684.73
2022-08-17T01:06:49.858Z,625.43
2022-08-17T01:09:19.444Z,633.10
2022-08-17T01:11:50.349Z,614.80
2022-08-17T01:14:19.484Z,621.80
2022-08-17T01:16:47.363Z,646.33
2022-08-17T01:19:18.308Z,624.50
2022-08-17T01:21:55.877Z,612.57
2022-08-17T01:24:25.589Z,588.97
2022-08-17T01:26:54.075Z,604.93
2022-08-17T01:29:25.640Z,607.50
2022-08-17T01:31:57.904Z,627.67
2022-08-17T01:34:32.753Z,632.73
2022-08-17T01:37:12.196Z,647.47
2022-08-17T01:39:51.583Z,700.67
2022-08-17T01:42:24.881Z,697.27
2022-08-17T01:44:58.702Z,702.90
2022-08-17T01:47:27.089Z,725.43
2022-08-17T01:49:58.228Z,661.43
2022-08-17T01:52:26.225Z,667.20
2022-08-17T01:54:58.921Z,757.10
2022-08-17T01:57:28.134Z,640.77
2022-08-17T01:59:56.315Z,664.33
2022-08-17T02:02:30.631Z,673.63
2022-08-17T02:04:59.787Z,616.10
2022-08-17T02:07:29.795Z,648.63
2022-08-17T02:09:59.681Z,608.83
2022-08-17T02:12:38.790Z,1551.97
2022-08-17T02:15:10.104Z,589.70
2022-08-17T02:17:38.416Z,607.20
2022-08-17T02:20:09.300Z,588.33
2022-08-17T02:22:39.342Z,601.43
2022-08-17T02:25:10.986Z,510.40
2022-08-17T02:27:39.966Z,614.20
2022-08-17T02:31:01.105Z,663.80
2022-08-17T02:33:00.533Z,591.50
2022-08-17T02:35:32.189Z,584.27
2022-08-17T02:38:01.592Z,637.97
2022-08-17T02:40:36.152Z,652.43
2022-08-17T02:43:10.979Z,644.97
2022-08-17T02:45:39.808Z,695.07
2022-08-17T02:48:08.062Z,680.30
2022-08-17T02:50:37.103Z,688.30
2022-08-17T02:53:06.180Z,667.33
2022-08-17T02:55:38.335Z,671.73
2022-08-17T02:58:06.289Z,701.83
2022-08-17T03:00:36.848Z,669.90
2022-08-17T03:03:07.198Z,698.27
2022-08-17T03:05:38.846Z,691.33
2022-08-17T03:08:11.740Z,715.93
2022-08-17T03:10:44.173Z,784.50
2022-08-17T03:13:14.942Z,784.17
2022-08-17T03:15:47.760Z,774.67
2022-08-17T03:18:19.144Z,808.97
2022-08-17T03:20:55.619Z,706.23
2022-08-17T03:23:25.307Z,694.93
2022-08-17T03:25:56.600Z,729.47
2022-08-17T03:28:25.868Z,739.07
2022-08-17T03:30:54.502Z,794.50
2022-08-17T03:33:22.627Z,807.07
2022-08-17T03:35:50.996Z,761.50
2022-08-17T03:38:20.445Z,773.53
2022-08-17T03:40:57.313Z,774.53
2022-08-17T03:43:31.073Z,537.30
2022-08-17T03:46:27.570Z,604.07
2022-08-17T03:49:19.864Z,1999.90
2022-08-17T03:52:05.223Z,1999.90
2022-08-17T03:54:53.202Z,1999.90
2022-08-17T03:57:21.253Z,1999.90
2022-08-17T03:59:57.119Z,1999.90
2022-08-17T04:02:27.955Z,1999.90
2022-08-17T04:04:55.696Z,1999.90
2022-08-17T04:07:25.977Z,1999.90
2022-08-17T04:10:00.435Z,1999.90
2022-08-17T04:12:31.342Z,1999.90
2022-08-17T04:15:01.188Z,1999.90
2022-08-17T04:17:30.634Z,1999.90
2022-08-17T04:19:58.731Z,1999.90
2022-08-17T04:22:30.226Z,1999.90
2022-08-17T04:25:00.184Z,1999.90
2022-08-17T04:27:28.373Z,1999.90
2022-08-17T04:29:56.330Z,1999.90
2022-08-17T04:33:05.192Z,1999.90
2022-08-17T04:35:13.225Z,1999.90
2022-08-17T04:37:40.924Z,1999.90
2022-08-17T04:40:27.400Z,1999.90
2022-08-17T04:43:03.008Z,1999.90
2022-08-17T04:45:31.917Z,1999.90
2022-08-17T04:48:01.956Z,1999.90
2022-08-17T04:50:29.762Z,1999.90
2022-08-17T04:52:57.943Z,1999.90
2022-08-17T04:55:25.932Z,1999.90
2022-08-17T04:57:54.113Z,1999.90
2022-08-17T05:00:21.960Z,1999.90
2022-08-17T05:02:51.215Z,1999.90
2022-08-17T05:05:21.940Z,1999.90
2022-08-17T05:07:52.084Z,1999.90
2022-08-17T05:10:20.228Z,1999.90
2022-08-17T05:12:49.764Z,1999.90
2022-08-17T05:15:17.631Z,1999.90
2022-08-17T05:17:48.038Z,1999.90
2022-08-17T05:20:15.825Z,1999.90
2022-08-17T05:22:53.118Z,1999.90
2022-08-17T05:25:24.942Z,1999.90
2022-08-17T05:27:54.318Z,1999.90
2022-08-17T05:30:22.625Z,1999.90
2022-08-17T05:32:57.382Z,1999.90
2022-08-17T05:35:26.373Z,1999.90
2022-08-17T05:37:56.683Z,1999.90
2022-08-17T05:40:26.557Z,1999.90
2022-08-17T05:43:09.045Z,1999.90
2022-08-17T05:45:55.887Z,1999.90
2022-08-17T05:48:39.718Z,1258.33
2022-08-17T05:51:30.885Z,979.47
2022-08-17T05:54:12.989Z,655.00
2022-08-17T05:56:56.596Z,72.40
2022-08-17T05:59:34.295Z,96.23
2022-08-17T06:02:12.102Z,59.53
2022-08-17T06:04:59.203Z,40.63
2022-08-17T06:07:32.927Z,68.20
2022-08-17T06:10:16.780Z,41.03
2022-08-17T06:13:04.898Z,40.57
2022-08-17T06:15:46.797Z,38.47
2022-08-17T06:18:18.975Z,30.23
2022-08-17T06:20:54.053Z,29.30
2022-08-17T06:23:29.152Z,36.20
2022-08-17T06:26:03.969Z,38.87
2022-08-17T06:28:39.619Z,35.92
2022-08-17T06:31:20.476Z,32.75
2022-08-17T06:33:49.892Z,31.70
2022-08-17T06:36:35.876Z,37.90
2022-08-17T06:39:20.965Z,37.13
2022-08-17T06:41:58.746Z,31.25
2022-08-17T06:44:43.336Z,28.58
2022-08-17T06:47:28.418Z,30.48
2022-08-17T06:50:12.954Z,31.15
2022-08-17T06:52:50.665Z,35.83
2022-08-17T06:55:26.398Z,53.83
2022-08-17T06:58:02.361Z,74.93
2022-08-17T07:00:41.933Z,69.15
2022-08-17T07:03:18.710Z,53.92
2022-08-17T07:05:53.238Z,50.78
2022-08-17T07:08:35.048Z,63.15
2022-08-17T07:11:08.484Z,67.78
2022-08-17T07:13:51.078Z,77.50
2022-08-17T07:16:25.160Z,89.55
2022-08-17T07:18:55.355Z,93.15
2022-08-17T07:21:41.015Z,100.35
2022-08-17T07:24:29.852Z,120.22
2022-08-17T07:27:07.559Z,147.68
2022-08-17T07:29:40.852Z,172.48
2022-08-17T07:32:11.153Z,226.30
2022-08-17T07:35:03.005Z,236.23
2022-08-17T07:37:33.681Z,278.10
2022-08-17T07:40:17.455Z,301.25
2022-08-17T07:43:01.991Z,319.77
2022-08-17T07:45:54.083Z,312.27
2022-08-17T07:48:25.441Z,326.13
2022-08-17T07:50:54.061Z,313.25
2022-08-17T07:53:26.248Z,309.77
2022-08-17T07:55:54.671Z,312.45
2022-08-17T07:58:24.457Z,304.77
2022-08-17T08:01:09.442Z,302.65
2022-08-17T08:03:43.514Z,310.80
2022-08-17T08:06:20.928Z,300.20
2022-08-17T08:08:53.297Z,301.40
2022-08-17T08:11:31.720Z,277.05
2022-08-17T08:14:21.694Z,253.10
2022-08-17T08:17:03.125Z,223.50
2022-08-17T08:19:32.543Z,226.85
2022-08-17T08:22:06.807Z,191.13
2022-08-17T08:24:53.506Z,188.48
2022-08-17T08:27:31.909Z,186.35
2022-08-17T08:30:05.949Z,199.50
2022-08-17T08:32:48.035Z,181.85
2022-08-17T08:35:29.615Z,175.13
2022-08-17T08:38:07.600Z,176.82
2022-08-17T08:40:48.300Z,131.55
2022-08-17T08:43:26.676Z,147.85
2022-08-17T08:45:59.876Z,140.10
2022-08-17T08:48:58.066Z,129.75
2022-08-17T08:51:45.441Z,126.22
2022-08-17T08:54:26.665Z,123.20
2022-08-17T08:57:25.406Z,111.72
2022-08-17T09:00:03.017Z,100.18
2022-08-17T09:02:56.199Z,74.50
2022-08-17T09:05:40.328Z,91.35
2022-08-17T09:08:19.136Z,93.80
2022-08-17T09:10:58.418Z,97.65
2022-08-17T09:13:36.238Z,92.55
2022-08-17T09:16:11.413Z,109.22
2022-08-17T09:19:02.303Z,119.28
2022-08-17T09:21:45.795Z,110.75
2022-08-17T09:24:24.107Z,119.97
2022-08-17T09:26:58.941Z,127.07
2022-08-17T09:29:29.595Z,125.50
2022-08-17T09:31:59.761Z,132.32
2022-08-17T09:34:35.292Z,142.27
2022-08-17T09:37:24.313Z,140.63
2022-08-17T09:40:02.727Z,135.07
2022-08-17T09:42:37.127Z,144.40
2022-08-17T09:45:21.608Z,163.98
2022-08-17T09:47:57.290Z,155.02
2022-08-17T09:51:03.528Z,146.65
2022-08-17T09:53:18.708Z,149.13
2022-08-17T09:55:59.459Z,155.73
2022-08-17T09:58:35.462Z,146.07
2022-08-17T10:01:17.278Z,161.68
2022-08-17T10:04:06.419Z,160.77
2022-08-17T10:06:44.584Z,156.88
2022-08-17T10:09:23.033Z,174.40
2022-08-17T10:12:17.268Z,163.65
2022-08-17T10:15:07.690Z,155.63
2022-08-17T10:17:54.086Z,166.63
2022-08-17T10:20:28.232Z,171.48
2022-08-17T10:23:18.689Z,162.75
2022-08-17T10:26:15.590Z,175.77
2022-08-17T10:28:50.058Z,178.32
2022-08-17T10:31:34.680Z,191.88
2022-08-17T10:34:38.712Z,182.23
2022-08-17T10:37:28.572Z,188.52
2022-08-17T10:40:10.684Z,193.73
2022-08-17T10:42:52.782Z,193.82
2022-08-17T10:45:27.086Z,190.15
2022-08-17T10:48:05.301Z,228.38
2022-08-17T10:51:01.923Z,198.60
2022-08-17T10:53:53.350Z,202.52
2022-08-17T10:56:47.096Z,199.98
2022-08-17T10:59:52.015Z,202.70
2022-08-17T11:02:30.709Z,194.63
2022-08-17T11:05:27.917Z,209.65
2022-08-17T11:08:30.538Z,207.90
2022-08-17T11:11:16.755Z,208.05
2022-08-17T11:13:52.959Z,196.50
2022-08-17T11:16:39.097Z,199.30
2022-08-17T11:19:44.401Z,196.38
2022-08-17T11:22:40.567Z,179.80
2022-08-17T11:25:17.274Z,183.02
2022-08-17T11:27:54.259Z,187.88
2022-08-17T11:30:58.968Z,172.32
2022-08-17T11:33:56.245Z,166.57
2022-08-17T11:36:38.848Z,169.10
2022-08-17T11:39:24.932Z,180.65
2022-08-17T11:42:02.192Z,184.65
2022-08-17T11:44:44.015Z,241.00
2022-08-17T11:47:37.856Z,186.70
2022-08-17T11:50:45.982Z,179.40
2022-08-17T11:54:21.529Z,172.20
2022-08-17T11:56:49.109Z,169.75
2022-08-17T11:59:58.474Z,170.73
2022-08-17T12:02:49.016Z,169.93
2022-08-17T12:05:34.562Z,179.30
2022-08-17T12:08:20.418Z,183.55
2022-08-17T12:11:00.205Z,168.25
2022-08-17T12:13:38.634Z,192.27
2022-08-17T12:16:10.243Z,226.93
2022-08-17T12:18:42.392Z,165.35
2022-08-17T12:21:29.025Z,151.35
2022-08-17T12:24:06.651Z,139.90
2022-08-17T12:26:37.338Z,127.07
2022-08-17T12:29:09.305Z,127.25
2022-08-17T12:31:48.793Z,123.82
2022-08-17T12:34:20.696Z,119.90
2022-08-17T12:36:52.466Z,117.15
2022-08-17T12:39:22.590Z,169.05
2022-08-17T12:42:01.560Z,106.85
2022-08-17T12:44:32.801Z,104.72
2022-08-17T12:47:04.766Z,107.63
2022-08-17T12:49:35.794Z,100.55
2022-08-17T12:52:13.660Z,97.93
2022-08-17T12:54:52.617Z,112.25
2022-08-17T12:57:24.015Z,124.72
2022-08-17T12:59:58.588Z,124.70
2022-08-17T13:02:34.298Z,127.47
2022-08-17T13:05:03.548Z,125.55
2022-08-17T13:07:37.249Z,123.13
2022-08-17T13:10:06.011Z,130.60
2022-08-17T13:12:36.528Z,133.23
2022-08-17T13:15:05.353Z,156.32
2022-08-17T13:17:37.127Z,144.05
2022-08-17T13:20:07.158Z,128.30
2022-08-17T13:22:36.888Z,122.22
2022-08-17T13:25:09.392Z,126.15
2022-08-17T13:27:38.398Z,129.82
2022-08-17T13:30:12.243Z,126.78
2022-08-17T13:32:44.164Z,121.93
2022-08-17T13:35:40.972Z,121.15
2022-08-17T13:38:14.376Z,127.07
2022-08-17T13:40:50.319Z,118.22
2022-08-17T13:43:44.845Z,113.97
2022-08-17T13:46:20.962Z,111.82
2022-08-17T13:48:59.277Z,114.85
2022-08-17T13:51:33.920Z,123.07
2022-08-17T13:54:07.230Z,152.35
2022-08-17T13:56:41.249Z,118.43
2022-08-17T13:59:12.602Z,119.75
2022-08-17T14:01:44.140Z,126.10
2022-08-17T14:04:14.882Z,117.40
2022-08-17T14:06:53.260Z,110.03
2022-08-17T14:09:26.219Z,114.20
2022-08-17T14:11:56.028Z,112.13
2022-08-17T14:14:24.730Z,111.95
2022-08-17T14:16:55.435Z,116.88
2022-08-17T14:19:25.769Z,110.32
2022-08-17T14:21:59.333Z,109.85
2022-08-17T14:24:35.200Z,106.68
2022-08-17T14:27:05.916Z,100.43
2022-08-17T14:29:35.227Z,105.13
2022-08-17T14:32:18.085Z,96.93
2022-08-17T14:34:46.201Z,95.72
2022-08-17T14:37:14.255Z,92.90
2022-08-17T14:39:43.692Z,94.93
2022-08-17T14:42:11.854Z,95.75
2022-08-17T14:44:43.252Z,96.07
2022-08-17T14:47:15.024Z,95.25
2022-08-17T14:49:43.749Z,95.43
2022-08-17T14:52:18.509Z,105.00
2022-08-17T14:54:48.411Z,104.00
2022-08-17T14:57:26.049Z,105.55
2022-08-17T15:00:02.231Z,115.35
2022-08-17T15:02:31.266Z,118.00
2022-08-17T15:05:05.318Z,130.52
2022-08-17T15:07:33.271Z,133.55
2022-08-17T15:10:02.790Z,125.57
2022-08-17T15:12:33.641Z,129.57
2022-08-17T15:15:04.720Z,140.27
2022-08-17T15:17:44.467Z,127.10
2022-08-17T15:20:24.849Z,128.38
2022-08-17T15:22:55.274Z,120.07
2022-08-17T15:25:26.117Z,121.28
2022-08-17T15:27:56.173Z,123.93
2022-08-17T15:30:25.856Z,119.13
2022-08-17T15:32:55.268Z,107.13
2022-08-17T15:35:27.848Z,111.32
2022-08-17T15:37:58.020Z,116.97
2022-08-17T15:40:27.558Z,117.03
2022-08-17T15:42:55.441Z,119.68
2022-08-17T15:45:28.301Z,120.57
2022-08-17T15:47:56.162Z,114.03
2022-08-17T15:50:23.932Z,117.93
2022-08-17T15:52:58.166Z,120.22
2022-08-17T15:55:29.169Z,114.45
2022-08-17T15:57:57.134Z,113.65
2022-08-17T16:00:28.183Z,107.53
2022-08-17T16:03:13.529Z,110.80
2022-08-17T16:05:44.752Z,109.72
2022-08-17T16:08:20.131Z,111.20
2022-08-17T16:10:51.262Z,110.65
2022-08-17T16:13:20.165Z,107.72
2022-08-17T16:15:56.660Z,106.72
2022-08-17T16:18:28.558Z,108.20
2022-08-17T16:20:56.731Z,112.97
2022-08-17T16:23:25.202Z,116.00
2022-08-17T16:25:54.656Z,114.47
2022-08-17T16:28:23.545Z,114.55
2022-08-17T16:31:04.207Z,117.93
2022-08-17T16:33:32.633Z,119.38
2022-08-17T16:36:01.108Z,122.57
2022-08-17T16:38:28.970Z,125.30
2022-08-17T16:40:58.160Z,122.75
2022-08-17T16:43:26.060Z,119.97
2022-08-17T16:45:53.943Z,120.30
2022-08-17T16:48:21.869Z,119.00
2022-08-17T16:51:03.198Z,111.88
2022-08-17T16:53:32.304Z,106.57
2022-08-17T16:56:01.430Z,110.78
2022-08-17T16:58:30.235Z,108.05
2022-08-17T17:00:59.461Z,104.05
2022-08-17T17:03:30.693Z,100.00
2022-08-17T17:06:10.148Z,102.95
2022-08-17T17:08:44.537Z,96.47
2022-08-17T17:11:19.506Z,89.75
2022-08-17T17:13:54.200Z,86.53
2022-08-17T17:16:29.389Z,84.28
2022-08-17T17:19:09.466Z,81.85
2022-08-17T17:21:44.802Z,83.65
2022-08-17T17:24:18.131Z,77.35
2022-08-17T17:27:11.881Z,80.40
2022-08-17T17:29:50.545Z,74.88
2022-08-17T17:32:23.108Z,74.40
2022-08-17T17:34:56.710Z,78.57
2022-08-17T17:37:33.240Z,76.40
2022-08-17T17:40:06.187Z,76.45
2022-08-17T17:42:40.598Z,76.07
2022-08-17T17:45:17.327Z,77.05
2022-08-17T17:47:46.280Z,74.93
2022-08-17T17:50:14.796Z,73.28
2022-08-17T17:52:49.483Z,72.15
2022-08-17T17:55:33.142Z,70.63
2022-08-17T17:58:13.379Z,72.85
2022-08-17T18:00:48.902Z,67.13
2022-08-17T18:03:29.412Z,66.60
2022-08-17T18:06:21.326Z,64.30
2022-08-17T18:09:08.908Z,63.53
2022-08-17T18:12:08.761Z,60.75
2022-08-17T18:14:50.789Z,57.53
2022-08-17T18:17:20.323Z,54.95
2022-08-17T18:19:48.339Z,61.30
2022-08-17T18:22:19.436Z,56.88
2022-08-17T18:24:54.114Z,55.08
2022-08-17T18:27:26.714Z,53.50
2022-08-17T18:29:57.920Z,50.75
2022-08-17T18:32:36.521Z,48.35
2022-08-17T18:35:30.194Z,46.38
2022-08-17T18:38:20.375Z,46.42
2022-08-17T18:40:59.710Z,44.17
2022-08-17T18:43:44.240Z,46.40
2022-08-17T18:46:28.682Z,46.50
2022-08-17T18:48:59.599Z,44.35
2022-08-17T18:51:41.685Z,43.72
2022-08-17T18:54:22.768Z,43.80
2022-08-17T18:56:53.951Z,46.10
2022-08-17T18:59:31.533Z,46.08
2022-08-17T19:02:33.658Z,47.83
2022-08-17T19:05:10.494Z,49.80
2022-08-17T19:07:41.166Z,50.30
2022-08-17T19:10:19.183Z,51.47
2022-08-17T19:12:51.191Z,52.67
2022-08-17T19:15:34.203Z,54.22
2022-08-17T19:18:09.935Z,53.53
2022-08-17T19:20:46.933Z,62.20
2022-08-17T19:23:22.175Z,55.22
2022-08-17T19:25:52.476Z,57.58
2022-08-17T19:28:24.759Z,57.53
2022-08-17T19:30:57.927Z,58.95
2022-08-17T19:33:28.016Z,57.92
2022-08-17T19:36:07.888Z,53.67
2022-08-17T19:38:45.690Z,57.45
2022-08-17T19:41:21.865Z,58.33
2022-08-17T19:44:07.818Z,60.90
2022-08-17T19:46:49.802Z,67.13
2022-08-17T19:49:34.476Z,74.28
2022-08-17T19:52:32.394Z,131.40
2022-08-17T19:55:09.290Z,70.75
2022-08-17T19:57:46.906Z,92.32
2022-08-17T20:00:17.728Z,102.65
2022-08-17T20:02:55.260Z,98.70
2022-08-17T20:05:29.041Z,95.88
2022-08-17T20:08:03.842Z,119.70
2022-08-17T20:10:41.131Z,109.05
2022-08-17T20:13:17.802Z,113.90
2022-08-17T20:16:01.272Z,116.20
2022-08-17T20:18:36.557Z,139.85
2022-08-17T20:21:20.488Z,184.05
2022-08-17T20:23:54.352Z,157.43
2022-08-17T20:26:27.528Z,233.30
2022-08-17T20:29:37.085Z,198.65
2022-08-17T20:32:24.039Z,244.52
2022-08-17T20:35:10.870Z,155.73
2022-08-17T20:37:45.005Z,131.77
2022-08-17T20:40:26.398Z,133.02
2022-08-17T20:42:54.819Z,127.47
2022-08-17T20:46:06.159Z,142.57
2022-08-17T20:48:39.781Z,88.03
2022-08-17T20:51:30.189Z,93.15
2022-08-17T20:54:36.529Z,81.72
2022-08-17T20:57:13.770Z,79.90
2022-08-17T21:00:13.840Z,178.27
2022-08-17T21:02:44.843Z,104.05
2022-08-17T21:05:32.559Z,110.07
2022-08-17T21:08:14.931Z,84.68
2022-08-17T21:10:48.341Z,73.25
2022-08-17T21:13:39.287Z,114.30
2022-08-17T21:16:24.319Z,68.88
2022-08-17T21:19:00.390Z,48.78
2022-08-17T21:21:41.201Z,45.50
2022-08-17T21:24:22.892Z,42.88
2022-08-17T21:26:58.431Z,39.33
2022-08-17T21:29:33.813Z,40.03
2022-08-17T21:32:25.167Z,43.60
2022-08-17T21:35:26.861Z,36.13
2022-08-17T21:38:02.475Z,32.17
2022-08-17T21:40:33.476Z,32.45
2022-08-17T21:43:07.971Z,31.23
2022-08-17T21:45:43.028Z,39.80
2022-08-17T21:48:14.635Z,42.30
2022-08-17T21:50:45.192Z,113.57
2022-08-17T21:53:25.380Z,152.52
2022-08-17T21:55:55.542Z,694.42
2022-08-17T21:58:31.345Z,774.13
2022-08-17T22:01:23.045Z,225.52
2022-08-17T22:04:19.152Z,359.33
2022-08-17T22:06:57.079Z,229.75
2022-08-17T22:09:31.589Z,391.45
2022-08-17T22:12:07.587Z,904.58
2022-08-17T22:14:51.450Z,543.35
2022-08-17T22:17:26.896Z,1100.72
2022-08-17T22:19:57.887Z,1999.90
2022-08-17T22:22:33.210Z,1999.90
2022-08-17T22:25:03.098Z,1026.85
2022-08-17T22:27:56.582Z,1999.90
2022-08-17T22:30:32.160Z,1999.90
2022-08-17T22:33:05.208Z,1437.40
2022-08-17T22:35:37.113Z,1437.20
2022-08-17T22:38:33.513Z,1115.50
2022-08-17T22:41:31.918Z,1999.90
2022-08-17T22:44:07.941Z,1999.90
2022-08-17T22:46:41.325Z,1999.90
2022-08-17T22:49:12.391Z,1002.07
2022-08-17T22:51:40.449Z,543.80
2022-08-17T22:54:41.808Z,528.27
2022-08-17T22:57:32.451Z,161.30
2022-08-17T23:00:01.583Z,477.70
2022-08-17T23:02:32.116Z,811.27
2022-08-17T23:05:24.125Z,420.00
2022-08-17T23:07:53.804Z,1999.90
2022-08-17T23:10:21.993Z,1999.90
2022-08-17T23:12:50.288Z,1618.20
2022-08-17T23:15:22.678Z,1999.90
2022-08-17T23:17:51.222Z,1999.90
2022-08-17T23:20:20.340Z,1999.90
2022-08-17T23:22:51.904Z,1999.90
2022-08-17T23:25:26.694Z,1999.90
2022-08-17T23:27:54.907Z,971.40
2022-08-17T23:30:25.184Z,1999.90
2022-08-17T23:32:54.640Z,742.43
2022-08-17T23:35:39.198Z,1999.90
2022-08-17T23:38:11.380Z,1186.43
2022-08-17T23:40:44.597Z,1999.90
2022-08-17T23:43:23.756Z,1999.90
2022-08-17T23:45:54.896Z,1999.90
2022-08-17T23:48:35.433Z,1999.90
2022-08-17T23:51:08.855Z,1999.90
2022-08-17T23:53:47.541Z,1332.73
2022-08-17T23:56:18.109Z,1999.90
2022-08-17T23:58:46.515Z,1370.00
